Time;durP1;ratioP1;P1;durP2;ratioP2;P2;SDS_P1;SDS_P2;PMS_P1;PMS_P2;Temp;Humidity;BMP_temperature;BMP_pressure;BME280_temperature;BME280_humidity;BME280_pressure;Samples;Min_cycle;Max_cycle;Signal;HPM_P1;HPM_P2
2022/04/30 00:02:09;;;;;;;8.88;4.25;;;;;;;;;;4934901;28;20425;-64
2022/04/30 00:04:44;;;;;;;5.10;2.75;;;;;;;;;;4952523;28;20471;-64
2022/04/30 00:07:13;;;;;;;5.35;3.03;;;;;;;;;;4952613;28;20370;-64
2022/04/30 00:09:38;;;;;;;7.10;3.35;;;;;;;;;;4951913;28;20577;-63
2022/04/30 00:12:04;;;;;;;8.40;3.45;;;;;;;;;;4951455;28;20437;-64
2022/04/30 00:14:29;;;;;;;8.70;3.63;;;;;;;;;;4951578;28;20030;-64
2022/04/30 00:16:55;;;;;;;6.90;2.92;;;;;;;;;;4951419;28;20100;-63
2022/04/30 00:19:21;;;;;;;7.90;3.40;;;;;;;;;;4952404;28;20417;-64
2022/04/30 00:21:47;;;;;;;9.15;4.03;;;;;;;;;;4951434;28;20343;-64
2022/04/30 00:24:13;;;;;;;8.15;3.80;;;;;;;;;;4950904;28;20448;-64
2022/04/30 00:26:38;;;;;;;10.30;4.75;;;;;;;;;;4952266;28;20484;-64
2022/04/30 00:29:03;;;;;;;7.80;3.55;;;;;;;;;;4950959;28;20434;-64
2022/04/30 00:31:29;;;;;;;7.60;3.30;;;;;;;;;;4951270;28;20125;-65
2022/04/30 00:33:55;;;;;;;6.78;3.72;;;;;;;;;;4951282;28;20527;-64
2022/04/30 00:36:21;;;;;;;7.25;3.53;;;;;;;;;;4950698;28;20112;-64
2022/04/30 00:38:47;;;;;;;11.38;3.65;;;;;;;;;;4950939;28;20311;-64
2022/04/30 00:41:12;;;;;;;7.18;3.42;;;;;;;;;;4951449;28;20345;-64
2022/04/30 00:43:44;;;;;;;7.53;3.45;;;;;;;;;;4951736;28;20385;-64
2022/04/30 00:46:16;;;;;;;12.48;3.60;;;;;;;;;;4950667;28;20026;-64
2022/04/30 00:48:42;;;;;;;7.28;4.03;;;;;;;;;;4952020;28;20429;-65
2022/04/30 00:51:12;;;;;;;8.32;3.53;;;;;;;;;;4950753;28;20333;-64
2022/04/30 00:53:43;;;;;;;9.70;4.45;;;;;;;;;;4951315;28;20401;-64
2022/04/30 00:56:11;;;;;;;7.10;3.22;;;;;;;;;;4950988;28;20457;-64
2022/04/30 00:58:38;;;;;;;8.02;3.63;;;;;;;;;;4950596;28;20501;-64
2022/04/30 01:01:04;;;;;;;8.65;3.70;;;;;;;;;;4948596;28;20360;-64
2022/04/30 01:03:29;;;;;;;6.93;3.15;;;;;;;;;;4950406;28;20061;-64
2022/04/30 01:05:55;;;;;;;5.80;3.63;;;;;;;;;;4951988;28;20488;-65
2022/04/30 01:08:21;;;;;;;8.82;3.60;;;;;;;;;;4950349;28;20048;-65
2022/04/30 01:10:47;;;;;;;5.22;3.13;;;;;;;;;;4914013;28;1082365;-64
2022/04/30 01:13:13;;;;;;;6.78;2.83;;;;;;;;;;4951780;28;20388;-64
2022/04/30 01:15:39;;;;;;;8.70;4.05;;;;;;;;;;4933449;28;20377;-64
2022/04/30 01:18:07;;;;;;;7.57;3.60;;;;;;;;;;4951710;28;20346;-64
2022/04/30 01:20:34;;;;;;;8.48;3.20;;;;;;;;;;4933552;28;20314;-65
2022/04/30 01:23:04;;;;;;;7.25;3.75;;;;;;;;;;4951352;28;20440;-64
2022/04/30 01:25:33;;;;;;;7.80;3.53;;;;;;;;;;4950975;28;20381;-64
2022/04/30 01:27:59;;;;;;;8.23;3.28;;;;;;;;;;4951138;28;20389;-63
2022/04/30 01:30:25;;;;;;;8.05;4.20;;;;;;;;;;4950739;28;20056;-64
2022/04/30 01:38:20;;;;;;;5.78;3.50;;;;;;;;;;4950646;28;20365;-64
2022/04/30 01:40:46;;;;;;;7.97;3.78;;;;;;;;;;4951719;28;20373;-64
2022/04/30 01:43:11;;;;;;;8.88;3.70;;;;;;;;;;4950587;28;20365;-64
2022/04/30 01:45:37;;;;;;;10.85;3.40;;;;;;;;;;4930617;28;20448;-64
2022/04/30 01:48:04;;;;;;;7.55;4.25;;;;;;;;;;4950592;28;20049;-64
2022/04/30 01:50:29;;;;;;;5.60;3.33;;;;;;;;;;4950319;28;20350;-64
2022/04/30 01:52:56;;;;;;;7.78;3.90;;;;;;;;;;4951979;28;20085;-64
2022/04/30 01:55:21;;;;;;;7.55;3.95;;;;;;;;;;4950653;28;20433;-63
2022/04/30 01:57:46;;;;;;;10.02;3.90;;;;;;;;;;4950327;28;20451;-63
2022/04/30 02:00:14;;;;;;;5.45;3.30;;;;;;;;;;4950697;28;20345;-64
2022/04/30 02:02:42;;;;;;;8.35;3.67;;;;;;;;;;4950077;28;20394;-65
2022/04/30 02:05:08;;;;;;;9.02;4.40;;;;;;;;;;4950494;28;20424;-64
2022/04/30 02:07:40;;;;;;;9.77;3.70;;;;;;;;;;4950624;28;20096;-64
2022/04/30 02:10:06;;;;;;;5.70;2.92;;;;;;;;;;4949701;28;20065;-63
2022/04/30 02:12:32;;;;;;;6.53;3.42;;;;;;;;;;4951081;28;20337;-65
2022/04/30 02:14:58;;;;;;;9.23;4.05;;;;;;;;;;4949487;28;20322;-64
2022/04/30 02:17:26;;;;;;;6.95;3.25;;;;;;;;;;4950312;28;20460;-64
2022/04/30 02:22:39;;;;;;;6.68;3.08;;;;;;;;;;4935639;28;20060;-64
2022/04/30 02:25:09;;;;;;;7.75;3.28;;;;;;;;;;4950602;28;20488;-64
2022/04/30 02:27:37;;;;;;;8.10;3.65;;;;;;;;;;4949896;28;20456;-63
2022/04/30 02:30:05;;;;;;;10.45;3.65;;;;;;;;;;4951419;28;20030;-64
2022/04/30 02:32:40;;;;;;;6.93;3.70;;;;;;;;;;4950262;28;20429;-64
2022/04/30 02:35:07;;;;;;;8.93;3.67;;;;;;;;;;4949996;28;20460;-65
2022/04/30 02:37:33;;;;;;;8.25;3.63;;;;;;;;;;4950174;28;20333;-64
2022/04/30 02:39:58;;;;;;;7.07;3.17;;;;;;;;;;4950679;28;20337;-64
2022/04/30 02:42:23;;;;;;;5.45;3.42;;;;;;;;;;4949828;28;20481;-64
2022/04/30 02:44:48;;;;;;;10.02;4.13;;;;;;;;;;4950063;28;20449;-64
2022/04/30 02:47:14;;;;;;;8.45;3.65;;;;;;;;;;4949436;28;20421;-64
2022/04/30 02:49:39;;;;;;;9.30;3.60;;;;;;;;;;4949767;28;20516;-64
2022/04/30 02:52:05;;;;;;;6.47;3.47;;;;;;;;;;4949848;28;20508;-64
2022/04/30 02:54:34;;;;;;;9.75;3.45;;;;;;;;;;4950179;28;20385;-65
2022/04/30 02:56:59;;;;;;;5.80;2.53;;;;;;;;;;4950115;28;20060;-64
2022/04/30 03:02:08;;;;;;;5.88;3.30;;;;;;;;;;4951145;28;20353;-64
2022/04/30 03:04:34;;;;;;;8.52;4.05;;;;;;;;;;4949816;28;20357;-64
2022/04/30 03:06:59;;;;;;;7.53;3.58;;;;;;;;;;4949904;28;20349;-63
2022/04/30 03:09:24;;;;;;;8.35;3.58;;;;;;;;;;4931639;28;20504;-64
2022/04/30 03:11:50;;;;;;;8.55;4.05;;;;;;;;;;4949481;28;20411;-65
2022/04/30 03:14:15;;;;;;;7.25;3.13;;;;;;;;;;4950374;28;20319;-64
2022/04/30 03:22:10;;;;;;;6.45;3.03;;;;;;;;;;4935298;28;20143;-64
2022/04/30 03:24:35;;;;;;;7.85;2.85;;;;;;;;;;4950001;28;20025;-64
2022/04/30 03:27:01;;;;;;;7.68;3.25;;;;;;;;;;4949276;28;20453;-65
2022/04/30 03:29:26;;;;;;;6.18;3.28;;;;;;;;;;4949425;28;20453;-64
2022/04/30 03:31:52;;;;;;;5.28;3.22;;;;;;;;;;4949259;28;20465;-64
2022/04/30 03:34:18;;;;;;;7.65;3.63;;;;;;;;;;4950335;28;20496;-64
2022/04/30 03:36:43;;;;;;;6.15;3.47;;;;;;;;;;4949239;28;20069;-64
2022/04/30 03:39:09;;;;;;;8.55;3.70;;;;;;;;;;4949453;28;20030;-64
2022/04/30 03:41:35;;;;;;;10.70;3.78;;;;;;;;;;4949366;28;20373;-65
2022/04/30 03:44:01;;;;;;;7.88;3.60;;;;;;;;;;4949398;28;20365;-64
2022/04/30 03:46:27;;;;;;;6.57;2.92;;;;;;;;;;4948848;28;20498;-63
2022/04/30 03:48:53;;;;;;;4.60;2.40;;;;;;;;;;4949209;28;20344;-64
2022/04/30 03:51:22;;;;;;;6.35;3.28;;;;;;;;;;4949003;28;20456;-64
2022/04/30 03:53:48;;;;;;;;;;;;;;;;;;4950094;28;20441;-64
2022/04/30 03:56:13;;;;;;;5.45;2.58;;;;;;;;;;4949085;28;20313;-64
2022/04/30 03:58:39;;;;;;;6.50;3.38;;;;;;;;;;4950988;28;20431;-64
2022/04/30 04:01:05;;;;;;;12.32;4.55;;;;;;;;;;4952376;28;20421;-64
2022/04/30 04:03:30;;;;;;;5.53;3.03;;;;;;;;;;4935970;28;20385;-64
2022/04/30 04:05:57;;;;;;;8.48;3.53;;;;;;;;;;4952799;28;20352;-64
2022/04/30 04:08:22;;;;;;;9.30;2.70;;;;;;;;;;4953668;28;20444;-64
2022/04/30 04:10:48;;;;;;;8.52;2.97;;;;;;;;;;4952185;28;20408;-64
2022/04/30 04:18:41;;;;;;;6.68;3.05;;;;;;;;;;4952102;28;20524;-64
2022/04/30 04:21:08;;;;;;;7.25;2.80;;;;;;;;;;4934736;28;20457;-64
2022/04/30 04:25:59;;;;;;;6.60;3.47;;;;;;;;;;4952513;28;20052;-64
2022/04/30 04:26:19;;;;;;;5.78;2.83;;;;;;;;;;4952269;28;20038;-64
2022/04/30 04:28:45;;;;;;;5.50;2.67;;;;;;;;;;4952245;28;20496;-63
2022/04/30 04:31:10;;;;;;;8.68;3.33;;;;;;;;;;4951837;28;20417;-64
2022/04/30 04:33:35;;;;;;;8.38;3.35;;;;;;;;;;4952200;28;20030;-65
2022/04/30 04:36:01;;;;;;;9.82;3.47;;;;;;;;;;4952756;28;20029;-65
2022/04/30 04:38:26;;;;;;;8.48;3.28;;;;;;;;;;4951994;28;20520;-64
2022/04/30 04:40:51;;;;;;;8.23;3.95;;;;;;;;;;4951735;28;20434;-64
2022/04/30 04:43:17;;;;;;;9.55;3.63;;;;;;;;;;4952942;28;20124;-65
2022/04/30 04:45:43;;;;;;;11.52;4.82;;;;;;;;;;4951544;28;20340;-65
2022/04/30 04:48:09;;;;;;;9.98;4.82;;;;;;;;;;4951934;28;20441;-65
2022/04/30 04:50:34;;;;;;;12.35;4.55;;;;;;;;;;4951661;28;20474;-64
2022/04/30 04:52:59;;;;;;;9.00;4.53;;;;;;;;;;4951487;28;20094;-64
2022/04/30 04:55:25;;;;;;;13.45;5.03;;;;;;;;;;4951667;28;20331;-65
2022/04/30 04:57:50;;;;;;;11.65;5.20;;;;;;;;;;4951789;28;20458;-65
2022/04/30 05:00:15;;;;;;;10.30;4.78;;;;;;;;;;4951566;28;20410;-64
2022/04/30 05:02:41;;;;;;;10.48;4.82;;;;;;;;;;4951925;28;20048;-64
2022/04/30 05:05:07;;;;;;;11.25;5.15;;;;;;;;;;4951831;28;20461;-65
2022/04/30 05:07:32;;;;;;;11.43;5.43;;;;;;;;;;4953456;28;20429;-64
2022/04/30 05:09:57;;;;;;;11.27;4.88;;;;;;;;;;4949824;28;20497;-64
2022/04/30 05:12:23;;;;;;;12.85;4.95;;;;;;;;;;4951911;28;20349;-64
2022/04/30 05:14:48;;;;;;;11.18;4.90;;;;;;;;;;4951248;28;20022;-65
2022/04/30 05:17:14;;;;;;;11.90;4.68;;;;;;;;;;4950853;28;20561;-65
2022/04/30 05:19:40;;;;;;;11.85;5.43;;;;;;;;;;4951104;28;20382;-64
2022/04/30 05:22:05;;;;;;;9.15;5.38;;;;;;;;;;4951242;28;20356;-64
2022/04/30 05:24:30;;;;;;;10.02;4.63;;;;;;;;;;4933787;28;20361;-64
2022/04/30 05:26:56;;;;;;;12.55;5.25;;;;;;;;;;4950984;28;20449;-65
2022/04/30 05:29:21;;;;;;;11.18;5.03;;;;;;;;;;4933827;28;20053;-64
2022/04/30 05:31:46;;;;;;;11.65;5.10;;;;;;;;;;4950744;28;20480;-65
2022/04/30 05:34:12;;;;;;;11.57;4.55;;;;;;;;;;4951824;28;20496;-64
2022/04/30 05:36:38;;;;;;;10.10;4.38;;;;;;;;;;4950963;28;20429;-64
2022/04/30 05:39:04;;;;;;;11.15;4.50;;;;;;;;;;4951632;28;20434;-65
2022/04/30 05:41:29;;;;;;;13.27;5.47;;;;;;;;;;4951346;28;20484;-65
2022/04/30 05:43:55;;;;;;;9.90;4.72;;;;;;;;;;4950658;28;20569;-65
2022/04/30 05:46:20;;;;;;;9.73;4.47;;;;;;;;;;4933017;28;20345;-64
2022/04/30 05:48:46;;;;;;;14.07;4.82;;;;;;;;;;4950386;28;20366;-64
2022/04/30 05:51:11;;;;;;;9.60;4.38;;;;;;;;;;4952277;28;20409;-69
2022/04/30 05:53:36;;;;;;;9.18;4.05;;;;;;;;;;4950903;28;20048;-65
2022/04/30 05:56:02;;;;;;;10.45;4.80;;;;;;;;;;4950570;28;20539;-65
2022/04/30 05:58:27;;;;;;;7.57;3.83;;;;;;;;;;4950971;28;20425;-65
2022/04/30 06:00:53;;;;;;;9.95;4.82;;;;;;;;;;4950491;28;20392;-65
2022/04/30 06:03:18;;;;;;;10.10;4.53;;;;;;;;;;4951442;28;20345;-65
2022/04/30 06:05:44;;;;;;;6.88;4.13;;;;;;;;;;4950554;28;20476;-65
2022/04/30 06:08:09;;;;;;;8.07;3.67;;;;;;;;;;4950820;28;20026;-65
2022/04/30 06:10:35;;;;;;;8.35;4.35;;;;;;;;;;4950584;28;20445;-64
2022/04/30 06:13:01;;;;;;;11.40;5.00;;;;;;;;;;4950763;28;20429;-65
2022/04/30 06:15:28;;;;;;;10.00;4.40;;;;;;;;;;4950270;28;20449;-65
2022/04/30 06:17:53;;;;;;;8.75;4.22;;;;;;;;;;4949668;28;20369;-65
2022/04/30 06:20:18;;;;;;;10.70;4.35;;;;;;;;;;4950464;28;20030;-65
2022/04/30 06:22:44;;;;;;;9.52;4.45;;;;;;;;;;4950038;28;20452;-65
2022/04/30 06:25:10;;;;;;;8.88;4.22;;;;;;;;;;4950146;28;20385;-65
2022/04/30 06:27:36;;;;;;;8.90;5.00;;;;;;;;;;4949851;28;20124;-65
2022/04/30 06:30:01;;;;;;;8.80;4.13;;;;;;;;;;4949908;28;20099;-64
2022/04/30 06:32:27;;;;;;;12.23;5.00;;;;;;;;;;4949868;28;20381;-65
2022/04/30 06:34:53;;;;;;;7.45;3.80;;;;;;;;;;4950396;28;20444;-65
2022/04/30 06:37:18;;;;;;;7.85;3.90;;;;;;;;;;4932946;28;20471;-65
2022/04/30 06:39:44;;;;;;;11.38;4.43;;;;;;;;;;4950414;28;20341;-64
2022/04/30 06:42:10;;;;;;;8.13;4.13;;;;;;;;;;4949699;28;20469;-65
2022/04/30 06:44:35;;;;;;;9.10;4.30;;;;;;;;;;4950000;28;20485;-64
2022/04/30 06:47:01;;;;;;;12.13;4.15;;;;;;;;;;4949971;28;20026;-65
2022/04/30 06:49:27;;;;;;;10.95;4.38;;;;;;;;;;4949436;28;20333;-64
2022/04/30 06:51:52;;;;;;;8.55;3.67;;;;;;;;;;4949258;28;20437;-65
2022/04/30 06:57:08;;;;;;;10.70;3.80;;;;;;;;;;4950140;28;20104;-64
2022/04/30 06:59:40;;;;;;;9.68;3.60;;;;;;;;;;4949334;28;20449;-64
2022/04/30 07:02:07;;;;;;;11.90;4.65;;;;;;;;;;4949674;28;20472;-64
2022/04/30 07:04:33;;;;;;;10.27;4.53;;;;;;;;;;4949343;28;20349;-64
2022/04/30 07:06:59;;;;;;;10.35;4.03;;;;;;;;;;4949623;28;20532;-65
2022/04/30 07:09:25;;;;;;;9.23;4.00;;;;;;;;;;4948993;28;20404;-64
2022/04/30 07:11:51;;;;;;;8.80;4.25;;;;;;;;;;4949539;28;20025;-64
2022/04/30 07:14:16;;;;;;;7.60;3.65;;;;;;;;;;4949267;28;20055;-64
2022/04/30 07:16:42;;;;;;;6.78;3.50;;;;;;;;;;4949577;28;20495;-64
2022/04/30 07:19:08;;;;;;;11.00;4.35;;;;;;;;;;4949466;28;20056;-65
2022/04/30 07:21:33;;;;;;;7.57;3.78;;;;;;;;;;4949460;28;20373;-64
2022/04/30 07:23:59;;;;;;;7.60;3.25;;;;;;;;;;4949447;28;20484;-65
2022/04/30 07:26:25;;;;;;;6.70;3.67;;;;;;;;;;4949546;28;20038;-65
2022/04/30 07:28:51;;;;;;;9.55;3.83;;;;;;;;;;4949279;28;20441;-64
2022/04/30 07:31:17;;;;;;;6.75;3.72;;;;;;;;;;4949477;28;20426;-64
2022/04/30 07:33:42;;;;;;;7.13;3.47;;;;;;;;;;4950369;28;20568;-65
2022/04/30 07:36:08;;;;;;;9.05;3.50;;;;;;;;;;4953182;28;20112;-64
2022/04/30 07:38:33;;;;;;;9.38;3.63;;;;;;;;;;4952980;28;20477;-65
2022/04/30 07:40:59;;;;;;;6.90;3.22;;;;;;;;;;4953143;28;20414;-65
2022/04/30 07:43:24;;;;;;;6.45;3.25;;;;;;;;;;4952742;28;20432;-65
2022/04/30 07:45:49;;;;;;;8.30;3.45;;;;;;;;;;4952958;28;20408;-65
2022/04/30 07:48:15;;;;;;;9.65;3.53;;;;;;;;;;4952912;28;20442;-64
2022/04/30 07:50:44;;;;;;;8.00;3.83;;;;;;;;;;4954645;28;20419;-65
2022/04/30 07:53:14;;;;;;;7.53;3.03;;;;;;;;;;4953361;28;20453;-64
2022/04/30 07:55:40;;;;;;;7.40;3.17;;;;;;;;;;4952539;28;20469;-64
2022/04/30 07:58:06;;;;;;;8.60;3.28;;;;;;;;;;4952794;28;20503;-65
2022/04/30 08:00:33;;;;;;;6.82;3.42;;;;;;;;;;4935088;28;20030;-65
2022/04/30 08:02:59;;;;;;;8.40;3.65;;;;;;;;;;4952637;28;20333;-64
2022/04/30 08:05:25;;;;;;;6.15;3.10;;;;;;;;;;4952879;28;20406;-64
2022/04/30 08:07:51;;;;;;;6.18;3.42;;;;;;;;;;4935192;28;20337;-67
2022/04/30 08:10:17;;;;;;;7.57;3.33;;;;;;;;;;4951927;28;20333;-64
2022/04/30 08:12:43;;;;;;;7.97;3.22;;;;;;;;;;4952406;28;20315;-64
2022/04/30 08:15:08;;;;;;;6.40;3.03;;;;;;;;;;4952250;28;20338;-65
2022/04/30 08:17:34;;;;;;;5.43;2.85;;;;;;;;;;4952601;28;20564;-65
2022/04/30 08:19:59;;;;;;;5.63;3.22;;;;;;;;;;4934634;28;20349;-64
2022/04/30 08:22:25;;;;;;;6.55;2.90;;;;;;;;;;4952524;28;20389;-64
2022/04/30 08:24:50;;;;;;;6.15;3.15;;;;;;;;;;4952387;28;20469;-65
2022/04/30 08:27:17;;;;;;;6.65;3.47;;;;;;;;;;4953342;28;20394;-64
2022/04/30 08:29:44;;;;;;;7.80;3.00;;;;;;;;;;4952125;28;20460;-64
2022/04/30 08:32:10;;;;;;;7.18;3.38;;;;;;;;;;4952037;28;20422;-64
2022/04/30 08:34:35;;;;;;;8.23;3.55;;;;;;;;;;4952068;28;20425;-65
2022/04/30 08:37:01;;;;;;;6.18;3.35;;;;;;;;;;4934791;28;20034;-64
2022/04/30 08:39:26;;;;;;;6.47;2.88;;;;;;;;;;4951548;28;20096;-64
2022/04/30 08:41:52;;;;;;;6.05;3.10;;;;;;;;;;4953667;28;20566;-64
2022/04/30 08:44:18;;;;;;;5.82;3.00;;;;;;;;;;4972166;28;20376;-65
2022/04/30 08:46:45;;;;;;;6.95;3.53;;;;;;;;;;4970822;28;20353;-65
2022/04/30 08:49:11;;;;;;;10.38;3.58;;;;;;;;;;4971269;28;20378;-64
2022/04/30 08:51:37;;;;;;;11.98;3.92;;;;;;;;;;4970378;28;20477;-66
2022/04/30 08:54:04;;;;;;;6.57;3.22;;;;;;;;;;4971463;28;20429;-65
2022/04/30 08:56:29;;;;;;;17.27;9.75;;;;;;;;;;4970216;28;20388;-64
2022/04/30 08:59:04;;;;;;;62.90;30.90;;;;;;;;;;4969725;28;20399;-65
2022/04/30 09:01:30;;;;;;;36.78;21.08;;;;;;;;;;4970730;28;20030;-64
2022/04/30 09:03:56;;;;;;;33.58;19.15;;;;;;;;;;4970494;28;20503;-64
2022/04/30 09:06:22;;;;;;;37.83;20.30;;;;;;;;;;4970352;28;20333;-64
2022/04/30 09:08:49;;;;;;;44.85;24.10;;;;;;;;;;4971651;28;20433;-65
2022/04/30 09:11:15;;;;;;;57.60;28.25;;;;;;;;;;4970530;28;20445;-64
2022/04/30 09:13:44;;;;;;;49.35;27.42;;;;;;;;;;4970614;28;20447;-64
2022/04/30 09:16:24;;;;;;;48.45;26.95;;;;;;;;;;4972374;28;20356;-64
2022/04/30 09:18:52;;;;;;;55.58;29.80;;;;;;;;;;4970336;28;20368;-64
2022/04/30 09:21:18;;;;;;;64.07;33.20;;;;;;;;;;4970797;28;20436;-64
2022/04/30 09:23:44;;;;;;;58.28;30.95;;;;;;;;;;4970395;28;20429;-64
2022/04/30 09:26:10;;;;;;;64.03;33.78;;;;;;;;;;4970443;28;20345;-64
2022/04/30 09:28:38;;;;;;;67.00;35.20;;;;;;;;;;4971818;28;20332;-65
2022/04/30 09:31:11;;;;;;;61.33;34.03;;;;;;;;;;4970221;28;20409;-64
2022/04/30 09:33:39;;;;;;;61.05;33.47;;;;;;;;;;4970637;28;20461;-64
2022/04/30 09:38:50;;;;;;;62.20;34.88;;;;;;;;;;4971262;28;20400;-64
2022/04/30 09:41:24;;;;;;;62.90;34.20;;;;;;;;;;4970965;28;20418;-64
2022/04/30 09:44:00;;;;;;;61.53;32.65;;;;;;;;;;4970406;28;20121;-64
2022/04/30 09:46:27;;;;;;;64.53;35.25;;;;;;;;;;4970314;28;20429;-64
2022/04/30 09:54:22;;;;;;;48.78;28.55;;;;;;;;;;4956780;28;20451;-64
2022/04/30 09:56:49;;;;;;;54.05;30.55;;;;;;;;;;4969265;28;20425;-64
2022/04/30 09:59:16;;;;;;;52.90;28.38;;;;;;;;;;4952570;28;20418;-64
2022/04/30 10:01:43;;;;;;;51.30;28.27;;;;;;;;;;4968387;28;20022;-64
2022/04/30 10:04:09;;;;;;;54.55;30.10;;;;;;;;;;4970343;28;20528;-64
2022/04/30 10:06:46;;;;;;;56.08;29.70;;;;;;;;;;4969872;28;20485;-64
2022/04/30 10:09:15;;;;;;;50.28;28.75;;;;;;;;;;4952758;28;20290;-65
2022/04/30 10:12:00;;;;;;;50.00;27.63;;;;;;;;;;4969640;28;20452;-64
2022/04/30 10:14:34;;;;;;;53.03;26.98;;;;;;;;;;4969803;28;20037;-64
2022/04/30 10:17:24;;;;;;;53.25;27.58;;;;;;;;;;4951970;28;20060;-64
2022/04/30 10:19:57;;;;;;;49.70;26.27;;;;;;;;;;4954764;28;20456;-64
2022/04/30 10:22:23;;;;;;;46.35;26.40;;;;;;;;;;4969655;28;20029;-65
2022/04/30 10:24:54;;;;;;;48.40;27.40;;;;;;;;;;4971203;28;20420;-64
2022/04/30 10:27:20;;;;;;;50.03;25.70;;;;;;;;;;4970439;28;20349;-64
2022/04/30 10:29:58;;;;;;;42.83;24.95;;;;;;;;;;4969337;28;20364;-64
2022/04/30 10:32:31;;;;;;;47.22;26.08;;;;;;;;;;4969467;28;20483;-64
2022/04/30 10:34:57;;;;;;;43.65;24.65;;;;;;;;;;4969922;28;20397;-64
2022/04/30 10:37:27;;;;;;;46.55;24.30;;;;;;;;;;4970364;28;20422;-64
2022/04/30 10:39:57;;;;;;;41.75;24.50;;;;;;;;;;4969245;28;20391;-64
2022/04/30 10:42:29;;;;;;;40.40;23.92;;;;;;;;;;4969188;28;20092;-64
2022/04/30 10:44:55;;;;;;;44.42;25.25;;;;;;;;;;4969184;28;20401;-65
2022/04/30 10:47:21;;;;;;;43.60;23.23;;;;;;;;;;4969235;28;20411;-65
2022/04/30 10:49:49;;;;;;;50.55;25.08;;;;;;;;;;4969321;28;20026;-64
2022/04/30 10:52:21;;;;;;;41.10;23.92;;;;;;;;;;4970007;28;20503;-65
2022/04/30 10:54:49;;;;;;;43.17;22.60;;;;;;;;;;4968885;28;20458;-64
2022/04/30 10:57:14;;;;;;;37.92;21.65;;;;;;;;;;4969303;28;20353;-64
2022/04/30 10:59:40;;;;;;;40.38;21.67;;;;;;;;;;4969116;28;20068;-65
2022/04/30 11:02:06;;;;;;;43.97;24.27;;;;;;;;;;4951963;28;20440;-65
2022/04/30 11:04:31;;;;;;;42.10;22.77;;;;;;;;;;4969035;28;20506;-64
2022/04/30 11:06:58;;;;;;;40.00;21.85;;;;;;;;;;4970901;28;20057;-64
2022/04/30 11:09:24;;;;;;;39.58;22.95;;;;;;;;;;4954651;28;20326;-64
2022/04/30 11:11:50;;;;;;;37.13;20.60;;;;;;;;;;4955690;28;20350;-64
2022/04/30 11:14:16;;;;;;;41.65;21.90;;;;;;;;;;4974791;28;20306;-64
2022/04/30 11:16:47;;;;;;;38.85;22.75;;;;;;;;;;4972831;28;20112;-64
2022/04/30 11:19:20;;;;;;;40.17;22.08;;;;;;;;;;4973089;28;20108;-64
2022/04/30 11:21:51;;;;;;;41.65;23.25;;;;;;;;;;4973009;28;20316;-64
2022/04/30 11:24:26;;;;;;;35.70;21.20;;;;;;;;;;4974819;28;20143;-65
2022/04/30 11:27:04;;;;;;;38.00;21.55;;;;;;;;;;4973031;28;20325;-64
2022/04/30 11:29:51;;;;;;;35.88;19.80;;;;;;;;;;4972740;28;20436;-64
2022/04/30 11:32:21;;;;;;;34.22;21.17;;;;;;;;;;4972132;28;20552;-63
2022/04/30 11:34:47;;;;;;;37.80;20.60;;;;;;;;;;4972454;28;20507;-64
2022/04/30 11:37:13;;;;;;;33.33;18.50;;;;;;;;;;4972585;28;20461;-64
2022/04/30 11:39:38;;;;;;;34.65;19.17;;;;;;;;;;4970854;28;20309;-65
2022/04/30 11:42:04;;;;;;;38.00;20.42;;;;;;;;;;4972622;28;20468;-64
2022/04/30 11:44:29;;;;;;;34.05;19.20;;;;;;;;;;4954619;28;20042;-64
2022/04/30 11:46:55;;;;;;;32.95;19.40;;;;;;;;;;4972358;28;20539;-64
2022/04/30 11:49:25;;;;;;;32.17;18.33;;;;;;;;;;4971336;28;20492;-64
2022/04/30 11:51:51;;;;;;;36.22;19.45;;;;;;;;;;4973381;28;20045;-63
2022/04/30 11:54:18;;;;;;;39.10;19.92;;;;;;;;;;4973048;28;20344;-64
2022/04/30 11:56:44;;;;;;;37.42;20.10;;;;;;;;;;4954858;28;20420;-64
2022/04/30 11:59:10;;;;;;;31.13;19.05;;;;;;;;;;4955068;28;20499;-64
2022/04/30 12:01:38;;;;;;;32.00;18.58;;;;;;;;;;4972247;28;20340;-64
2022/04/30 12:04:11;;;;;;;33.55;18.30;;;;;;;;;;4972208;28;20420;-65
2022/04/30 12:06:38;;;;;;;33.58;18.52;;;;;;;;;;4972264;28;20466;-65
2022/04/30 12:09:18;;;;;;;31.73;18.70;;;;;;;;;;4972049;28;20385;-64
2022/04/30 12:11:44;;;;;;;32.33;18.48;;;;;;;;;;4972342;28;20045;-64
2022/04/30 12:14:11;;;;;;;33.20;19.05;;;;;;;;;;4972943;28;20444;-64
2022/04/30 12:16:42;;;;;;;28.13;16.90;;;;;;;;;;4973550;28;20364;-64
2022/04/30 12:25:14;;;;;;;25.55;15.82;;;;;;;;;;4972768;28;20510;-64
2022/04/30 12:27:41;;;;;;;29.48;17.00;;;;;;;;;;4972125;28;20348;-66
2022/04/30 12:30:09;;;;;;;30.70;16.85;;;;;;;;;;4972458;28;20376;-64
2022/04/30 12:32:46;;;;;;;31.20;18.25;;;;;;;;;;4972685;28;20313;-64
2022/04/30 12:35:16;;;;;;;30.25;16.85;;;;;;;;;;4972212;28;20447;-64
2022/04/30 12:37:41;;;;;;;30.92;17.33;;;;;;;;;;4971637;28;20348;-63
2022/04/30 12:40:10;;;;;;;31.38;17.00;;;;;;;;;;4971064;28;20342;-64
2022/04/30 12:42:37;;;;;;;24.35;15.18;;;;;;;;;;4971743;28;20053;-64
2022/04/30 12:45:03;;;;;;;27.63;16.40;;;;;;;;;;4971655;28;20444;-64
2022/04/30 12:47:28;;;;;;;26.70;16.13;;;;;;;;;;4973132;28;20524;-64
2022/04/30 12:49:54;;;;;;;32.08;16.95;;;;;;;;;;4971610;28;20338;-64
2022/04/30 12:52:20;;;;;;;29.38;15.80;;;;;;;;;;4972224;28;20075;-64
2022/04/30 12:54:49;;;;;;;27.60;15.82;;;;;;;;;;4971132;28;20516;-64
2022/04/30 12:57:17;;;;;;;;;;;;;;;;;;4973504;28;20091;-64
2022/04/30 12:59:42;;;;;;;28.15;16.17;;;;;;;;;;4970664;28;20026;-64
2022/04/30 13:02:08;;;;;;;24.60;15.38;;;;;;;;;;4971142;28;20083;-64
2022/04/30 13:04:34;;;;;;;24.67;15.40;;;;;;;;;;4971247;28;20318;-64
2022/04/30 13:06:59;;;;;;;25.80;14.70;;;;;;;;;;4970751;28;20037;-64
2022/04/30 13:14:52;;;;;;;23.35;13.77;;;;;;;;;;4971573;28;20377;-64
2022/04/30 13:17:18;;;;;;;24.73;15.40;;;;;;;;;;4970511;28;20053;-64
2022/04/30 13:19:44;;;;;;;24.25;14.90;;;;;;;;;;4972493;28;20133;-63
2022/04/30 13:22:10;;;;;;;28.33;13.60;;;;;;;;;;4970715;28;20120;-64
2022/04/30 13:24:35;;;;;;;28.20;14.98;;;;;;;;;;4970804;28;20083;-64
2022/04/30 13:27:00;;;;;;;24.20;14.65;;;;;;;;;;4971495;28;20112;-64
2022/04/30 13:29:26;;;;;;;23.90;14.25;;;;;;;;;;4970801;28;20392;-65
2022/04/30 13:31:51;;;;;;;25.63;13.73;;;;;;;;;;4969343;28;20436;-65
2022/04/30 13:34:19;;;;;;;24.90;13.75;;;;;;;;;;4970805;28;20657;-64
2022/04/30 13:36:45;;;;;;;23.65;13.68;;;;;;;;;;4970306;28;20349;-64
2022/04/30 13:39:11;;;;;;;23.20;13.20;;;;;;;;;;4953267;28;20116;-64
2022/04/30 13:41:36;;;;;;;22.55;13.10;;;;;;;;;;4970186;28;20047;-64
2022/04/30 13:44:01;;;;;;;24.10;13.30;;;;;;;;;;4970527;28;20449;-64
2022/04/30 13:46:27;;;;;;;25.65;14.10;;;;;;;;;;4969856;28;20029;-64
2022/04/30 13:48:52;;;;;;;27.83;14.65;;;;;;;;;;4970481;28;20313;-64
2022/04/30 13:51:18;;;;;;;19.55;12.45;;;;;;;;;;4970243;28;20502;-64
2022/04/30 13:53:43;;;;;;;20.65;12.88;;;;;;;;;;4970256;28;20555;-64
2022/04/30 13:56:09;;;;;;;24.77;13.40;;;;;;;;;;4969939;28;20452;-64
2022/04/30 13:58:35;;;;;;;20.45;13.07;;;;;;;;;;4970200;28;21556;-64
2022/04/30 14:01:00;;;;;;;21.85;13.48;;;;;;;;;;4970313;28;20361;-64
2022/04/30 14:03:27;;;;;;;21.40;12.68;;;;;;;;;;4969873;28;20345;-64
2022/04/30 14:05:53;;;;;;;20.50;12.48;;;;;;;;;;4970563;28;20425;-63
2022/04/30 14:08:19;;;;;;;24.45;12.43;;;;;;;;;;4952531;28;20068;-64
2022/04/30 14:10:44;;;;;;;22.73;12.95;;;;;;;;;;4969539;28;20107;-65
2022/04/30 14:15:54;;;;;;;21.40;12.43;;;;;;;;;;4970506;28;20503;-64
2022/04/30 14:18:19;;;;;;;20.48;12.55;;;;;;;;;;4970054;28;20411;-64
2022/04/30 14:20:48;;;;;;;22.58;12.45;;;;;;;;;;4969578;28;20433;-65
2022/04/30 14:23:15;;;;;;;20.92;12.60;;;;;;;;;;4970347;28;20345;-64
2022/04/30 14:25:42;;;;;;;23.58;13.57;;;;;;;;;;4969179;28;20432;-64
2022/04/30 14:28:09;;;;;;;20.33;11.77;;;;;;;;;;4969851;28;20374;-64
2022/04/30 14:30:34;;;;;;;19.17;11.25;;;;;;;;;;4969956;28;20334;-64
2022/04/30 14:33:01;;;;;;;23.48;12.55;;;;;;;;;;4969779;28;20322;-64
2022/04/30 14:35:27;;;;;;;19.27;12.55;;;;;;;;;;4971056;28;20472;-64
2022/04/30 14:37:52;;;;;;;20.60;11.68;;;;;;;;;;4969405;28;20413;-64
2022/04/30 14:40:18;;;;;;;20.55;12.13;;;;;;;;;;4969457;28;20507;-65
2022/04/30 14:42:44;;;;;;;18.55;11.85;;;;;;;;;;4970233;28;20092;-64
2022/04/30 14:45:09;;;;;;;19.40;10.77;;;;;;;;;;4969549;28;20383;-64
2022/04/30 14:47:34;;;;;;;17.98;10.23;;;;;;;;;;4969603;28;20376;-65
2022/04/30 14:50:00;;;;;;;19.10;11.43;;;;;;;;;;4969556;28;20448;-64
2022/04/30 14:52:26;;;;;;;17.23;10.63;;;;;;;;;;4969106;28;20388;-64
2022/04/30 14:54:52;;;;;;;18.55;11.00;;;;;;;;;;4969101;28;20443;-64
2022/04/30 14:57:17;;;;;;;16.65;10.55;;;;;;;;;;4970066;28;20419;-64
2022/04/30 14:59:42;;;;;;;17.88;10.55;;;;;;;;;;4968934;28;20029;-64
2022/04/30 15:02:08;;;;;;;17.08;10.10;;;;;;;;;;4969053;28;20453;-64
2022/04/30 15:04:33;;;;;;;16.65;10.23;;;;;;;;;;4969443;28;20432;-64
2022/04/30 15:06:59;;;;;;;19.48;11.35;;;;;;;;;;4969397;28;20494;-64
2022/04/30 15:09:26;;;;;;;15.73;9.90;;;;;;;;;;4968721;28;20568;-64
2022/04/30 15:11:51;;;;;;;14.48;10.15;;;;;;;;;;4969069;28;20026;-64
2022/04/30 15:14:17;;;;;;;18.08;10.73;;;;;;;;;;4969201;28;20025;-65
2022/04/30 15:16:42;;;;;;;15.20;9.95;;;;;;;;;;4968999;28;20356;-64